Terminal Aerodrome Forecast
Issued by NWS Cheyenne, WY

Home | Current Version | Previous Version | Text Only | Print | Product List | Glossary On
Versions: 1 2 3 4 5 6 7 8 9 10 11 12 13 14 15 16 17 18 19 20 21 22 23 24 25 26 27
000
FTUS45 KCYS 031742
TAFCYS
TAF
KCYS 031742Z 0318/0418 18012G18KT P6SM BKN100
     FM032100 18013G20KT P6SM VCTS BKN070CB
     FM040200 24007KT P6SM BKN070
     FM041500 28015G25KT P6SM SCT100=

USA.gov is the U.S. government's official web portal to all federal, state and local government web resources and services.